Time;durP1;ratioP1;P1;durP2;ratioP2;P2;SDS_P1;SDS_P2;PMS_P1;PMS_P2;Temp;Humidity;BMP_temperature;BMP_pressure;BME280_temperature;BME280_humidity;BME280_pressure;Samples;Min_cycle;Max_cycle;Signal;HPM_P1;HPM_P2
2021/12/18 00:01:03;;;;;;;32.27;21.60;;;;;;;;;;5090824;28;20487;-87
2021/12/18 00:03:29;;;;;;;31.93;20.33;;;;;;;;;;5089900;28;20409;-87
2021/12/18 00:05:55;;;;;;;33.93;21.33;;;;;;;;;;5091501;28;20405;-88
2021/12/18 00:08:21;;;;;;;31.83;19.50;;;;;;;;;;5073399;28;20429;-87
2021/12/18 00:10:47;;;;;;;30.57;19.70;;;;;;;;;;5091350;28;20417;-87
2021/12/18 00:13:21;;;;;;;29.10;19.73;;;;;;;;;;5073024;28;20388;-86
2021/12/18 00:15:47;;;;;;;30.60;21.00;;;;;;;;;;5091313;28;20468;-86
2021/12/18 00:18:20;;;;;;;32.30;20.73;;;;;;;;;;5091666;28;20526;-86
2021/12/18 00:20:47;;;;;;;40.17;22.23;;;;;;;;;;5091790;28;20389;-86
2021/12/18 00:23:15;;;;;;;31.60;21.43;;;;;;;;;;5091444;28;20401;-86
2021/12/18 00:25:44;;;;;;;31.93;19.23;;;;;;;;;;5091042;28;20395;-86
2021/12/18 00:28:10;;;;;;;31.80;20.77;;;;;;;;;;5091259;28;20450;-86
2021/12/18 00:30:44;;;;;;;33.87;19.93;;;;;;;;;;5072712;28;20385;-86
2021/12/18 00:33:16;;;;;;;42.40;20.80;;;;;;;;;;5073379;28;20449;-86
2021/12/18 00:35:42;;;;;;;34.60;21.80;;;;;;;;;;5072363;28;20849;-87
2021/12/18 00:38:11;;;;;;;42.93;21.27;;;;;;;;;;5072831;28;20445;-87
2021/12/18 00:40:58;;;;;;;36.07;22.17;;;;;;;;;;5090637;28;20402;-87
2021/12/18 00:43:29;;;;;;;40.70;21.97;;;;;;;;;;5072589;28;20969;-87
2021/12/18 00:45:55;;;;;;;38.47;21.70;;;;;;;;;;5090505;28;20443;-87
2021/12/18 00:48:21;;;;;;;42.27;21.37;;;;;;;;;;5090652;28;20973;-87
2021/12/18 00:50:48;;;;;;;45.40;23.03;;;;;;;;;;5090796;28;20416;-87
2021/12/18 00:53:14;;;;;;;40.53;21.70;;;;;;;;;;5092155;28;20699;-87
2021/12/18 00:55:42;;;;;;;35.53;21.93;;;;;;;;;;5072411;28;20440;-87
2021/12/18 00:58:09;;;;;;;44.97;22.47;;;;;;;;;;5091059;28;20412;-86
2021/12/18 01:00:42;;;;;;;44.90;24.20;;;;;;;;;;5073691;28;20425;-86
2021/12/18 01:03:19;;;;;;;45.80;23.37;;;;;;;;;;5091026;28;20428;-86
2021/12/18 01:05:50;;;;;;;41.60;23.77;;;;;;;;;;5071732;28;20874;-86
2021/12/18 01:08:18;;;;;;;39.63;21.37;;;;;;;;;;5072011;28;20396;-87
2021/12/18 01:13:28;;;;;;;44.00;21.70;;;;;;;;;;5090191;28;20946;-87
2021/12/18 01:15:56;;;;;;;43.03;23.63;;;;;;;;;;5071998;28;20448;-87
2021/12/18 01:23:54;;;;;;;49.50;24.13;;;;;;;;;;5089956;28;20414;-87
2021/12/18 01:26:20;;;;;;;44.73;25.70;;;;;;;;;;5089793;28;20409;-86
2021/12/18 01:28:46;;;;;;;43.43;23.27;;;;;;;;;;5089994;28;20413;-87
2021/12/18 01:31:12;;;;;;;44.87;24.60;;;;;;;;;;5090057;28;20399;-86
2021/12/18 01:33:38;;;;;;;43.87;23.50;;;;;;;;;;5089486;28;20730;-86
2021/12/18 01:36:07;;;;;;;49.57;24.83;;;;;;;;;;5071847;28;20417;-86
2021/12/18 01:38:33;;;;;;;49.37;25.07;;;;;;;;;;5089715;28;20467;-86
2021/12/18 01:41:05;;;;;;;50.53;26.13;;;;;;;;;;5071512;28;20436;-86
2021/12/18 01:44:32;;;;;;;41.47;23.50;;;;;;;;;;5090195;28;20390;-86
2021/12/18 01:52:03;;;;;;;45.03;22.90;;;;;;;;;;5090002;28;20375;-87
2021/12/18 01:54:32;;;;;;;47.67;25.80;;;;;;;;;;5072315;28;20914;-87
2021/12/18 01:56:59;;;;;;;49.30;24.37;;;;;;;;;;5071462;28;20405;-87
2021/12/18 01:59:43;;;;;;;45.43;25.13;;;1.80;99.90;;;;;;5089867;28;20460;-87
2021/12/18 02:02:10;;;;;;;47.77;25.10;;;;;;;;;;5089791;28;20496;-87
2021/12/18 02:04:36;;;;;;;48.30;26.00;;;;;;;;;;5089399;28;20500;-87
2021/12/18 02:07:02;;;;;;;44.57;23.37;;;;;;;;;;5089632;28;20483;-86
2021/12/18 02:09:44;;;;;;;43.97;24.47;;;1.40;98.70;;;;;;5089377;28;20765;-86
2021/12/18 02:12:11;;;;;;;47.57;25.67;;;;;;;;;;5089108;28;20512;-86
2021/12/18 02:20:37;;;;;;;40.77;24.20;;;1.50;98.00;;;;;;5089406;28;20438;-86
2021/12/18 02:23:04;;;;;;;42.07;23.90;;;1.40;99.90;;;;;;5089519;28;20529;-87
2021/12/18 02:25:32;;;;;;;44.03;25.10;;;;;;;;;;5071820;28;20886;-87
2021/12/18 02:27:58;;;;;;;49.33;24.97;;;;;;;;;;5074901;28;20791;-86
2021/12/18 02:30:25;;;;;;;42.27;22.60;;;;;;;;;;5074649;28;20387;-86
2021/12/18 02:32:51;;;;;;;48.37;23.00;;;;;;;;;;5074943;28;20889;-86
2021/12/18 02:35:38;;;;;;;49.33;24.77;;;1.40;99.90;;;;;;5092877;28;20404;-87
2021/12/18 02:38:11;;;;;;;53.40;26.70;;;;;;;;;;5093292;28;20408;-85
2021/12/18 02:43:18;;;;;;;44.03;24.40;;;1.40;99.90;;;;;;5093119;28;20429;-86
2021/12/18 02:45:44;;;;;;;41.57;21.97;;;;;;;;;;5092639;28;20432;-86
2021/12/18 02:48:10;;;;;;;48.57;23.77;;;;;;;;;;5074815;28;20424;-86
2021/12/18 02:50:40;;;;;;;44.97;22.30;;;1.20;98.50;;;;;;5074507;28;20456;-86
2021/12/18 02:53:06;;;;;;;48.10;24.80;;;1.30;99.80;;;;;;5075090;28;20448;-86
2021/12/18 02:55:32;;;;;;;46.57;24.03;;;;;;;;;;5092521;28;20432;-86
2021/12/18 02:57:58;;;;;;;45.50;23.83;;;;;;;;;;5092789;28;20455;-86
2021/12/18 03:00:27;;;;;;;47.33;23.63;;;;;;;;;;5074468;28;20435;-85
2021/12/18 03:02:53;;;;;;;40.37;22.20;;;;;;;;;;5074590;28;20448;-86
2021/12/18 03:05:26;;;;;;;49.70;25.57;;;;;;;;;;5074330;28;20473;-86
2021/12/18 03:08:00;;;;;;;48.33;24.27;;;;;;;;;;5074370;28;20427;-86
2021/12/18 03:24:36;;;;;;;61.03;29.40;;;;;;;;;;5029903;28;21008;-86
2021/12/18 03:27:02;;;;;;;51.10;28.43;;;;;;;;;;5050516;28;20379;-86
2021/12/18 03:29:28;;;;;;;51.33;28.13;;;;;;;;;;5073704;28;20384;-86
2021/12/18 03:31:54;;;;;;;52.20;27.20;;;;;;;;;;5091936;28;20415;-86
2021/12/18 03:34:20;;;;;;;52.60;27.37;;;;;;;;;;5074135;28;20875;-86
2021/12/18 03:36:46;;;;;;;55.27;27.00;;;;;;;;;;5073595;28;20548;-86
2021/12/18 03:39:15;;;;;;;52.97;25.97;;;1.70;99.90;;;;;;5074034;28;20470;-86
2021/12/18 03:41:41;;;;;;;61.97;28.53;;;;;;;;;;5091940;28;20380;-86
2021/12/18 03:44:07;;;;;;;56.00;28.07;;;;;;;;;;5091933;28;20904;-86
2021/12/18 03:46:33;;;;;;;58.70;28.00;;;;;;;;;;5073340;28;20424;-86
2021/12/18 03:48:59;;;;;;;54.73;27.47;;;;;;;;;;5073633;28;20394;-86
2021/12/18 03:51:25;;;;;;;65.13;26.93;;;;;;;;;;5091875;28;20412;-86
2021/12/18 03:53:51;;;;;;;68.50;29.20;;;;;;;;;;5073541;28;20810;-86
2021/12/18 03:56:18;;;;;;;54.10;27.73;;;;;;;;;;5091497;28;20478;-86
2021/12/18 03:58:44;;;;;;;53.33;26.70;;;;;;;;;;5091528;28;20580;-86
2021/12/18 04:01:10;;;;;;;54.70;25.20;;;;;;;;;;5073400;28;20437;-86
2021/12/18 04:03:36;;;;;;;54.67;25.80;;;;;;;;;;5091435;28;20885;-86
2021/12/18 04:06:02;;;;;;;50.30;24.20;;;;;;;;;;5073397;28;20616;-86
2021/12/18 04:08:28;;;;;;;56.30;27.23;;;;;;;;;;5073564;28;20499;-86
2021/12/18 04:10:54;;;;;;;52.87;26.97;;;;;;;;;;5091076;28;20861;-86
2021/12/18 04:13:20;;;;;;;46.73;26.00;;;;;;;;;;5072918;28;20407;-86
2021/12/18 04:15:46;;;;;;;58.70;28.67;;;;;;;;;;5072629;28;20424;-86
2021/12/18 04:18:12;;;;;;;51.43;26.10;;;;;;;;;;5091278;28;20615;-86
2021/12/18 04:20:38;;;;;;;48.87;25.90;;;;;;;;;;5072512;28;20438;-85
2021/12/18 04:23:04;;;;;;;47.77;25.90;;;;;;;;;;5091009;28;20491;-86
2021/12/18 04:25:30;;;;;;;54.67;27.80;;;;;;;;;;5072537;28;20404;-86
2021/12/18 04:27:56;;;;;;;55.00;24.77;;;;;;;;;;5073357;28;20384;-86
2021/12/18 04:30:22;;;;;;;51.73;25.93;;;;;;;;;;5072881;28;20426;-86
2021/12/18 04:32:48;;;;;;;50.17;25.63;;;;;;;;;;5073271;28;20387;-86
2021/12/18 04:35:15;;;;;;;47.53;25.67;;;;;;;;;;5072400;28;20411;-86
2021/12/18 04:37:41;;;;;;;53.60;26.03;;;;;;;;;;5090910;28;20411;-86
2021/12/18 04:40:07;;;;;;;54.63;26.20;;;2.20;97.70;;;;;;5072627;28;20547;-86
2021/12/18 04:42:33;;;;;;;49.40;24.13;;;;;;;;;;5090799;28;20495;-86
2021/12/18 04:44:59;;;;;;;52.93;24.67;;;;;;;;;;5090487;28;20748;-86
2021/12/18 04:47:25;;;;;;;49.93;24.67;;;;;;;;;;5090757;28;20462;-85
2021/12/18 04:49:51;;;;;;;42.00;21.13;;;;;;;;;;5071608;28;20408;-86
2021/12/18 04:52:17;;;;;;;45.90;25.90;;;;;;;;;;5072039;28;20410;-86
2021/12/18 04:54:44;;;;;;;51.80;23.87;;;;;;;;;;5072024;28;20437;-86
2021/12/18 04:57:11;;;;;;;50.30;23.23;;;;;;;;;;5072599;28;20428;-86
2021/12/18 04:59:43;;;;;;;50.37;24.03;;;;;;;;;;5071990;28;20475;-86
2021/12/18 05:02:09;;;;;;;46.33;22.90;;;;;;;;;;5072242;28;20416;-86
2021/12/18 05:04:35;;;;;;;45.90;22.07;;;;;;;;;;5072201;28;20803;-86
2021/12/18 05:07:01;;;;;;;44.63;22.83;;;;;;;;;;5072134;28;20409;-86
2021/12/18 05:09:27;;;;;;;51.40;24.97;;;;;;;;;;5072039;28;20408;-86
2021/12/18 05:11:53;;;;;;;44.70;21.47;;;;;;;;;;5071819;28;20937;-86
2021/12/18 05:14:19;;;;;;;38.80;21.97;;;;;;;;;;5071603;28;20451;-86
2021/12/18 05:16:45;;;;;;;39.00;22.23;;;;;;;;;;5089906;28;20392;-86
2021/12/18 05:19:11;;;;;;;46.10;21.87;;;;;;;;;;5071887;28;20604;-86
2021/12/18 05:21:37;;;;;;;37.30;21.00;;;;;;;;;;5071723;28;20543;-86
2021/12/18 05:24:03;;;;;;;46.87;21.47;;;;;;;;;;5071539;28;20418;-86
2021/12/18 05:26:29;;;;;;;39.20;22.90;;;;;;;;;;5089633;28;20388;-87
2021/12/18 05:28:55;;;;;;;38.17;21.07;;;;;;;;;;5090008;28;20842;-87
2021/12/18 05:31:21;;;;;;;45.07;23.13;;;;;;;;;;5071823;28;20478;-87
2021/12/18 05:33:49;;;;;;;46.30;22.97;;;;;;;;;;5089875;28;20889;-87
2021/12/18 05:36:32;;;;;;;44.43;21.07;;;;;;;;;;5071618;28;20936;-87
2021/12/18 05:39:07;;;;;;;38.53;21.40;;;3.00;95.10;;;;;;5090229;28;20439;-87
2021/12/18 05:41:33;;;;;;;37.37;20.00;;;;;;;;;;5071692;28;20414;-87
2021/12/18 05:44:00;;;;;;;45.33;23.13;;;;;;;;;;5089767;28;20398;-85
2021/12/18 05:46:26;;;;;;;39.90;21.50;;;;;;;;;;5089782;28;20379;-87
2021/12/18 05:48:52;;;;;;;46.37;24.43;;;;;;;;;;5072018;28;20417;-87
2021/12/18 05:51:18;;;;;;;40.63;21.00;;;;;;;;;;5089929;28;20379;-87
2021/12/18 05:53:44;;;;;;;42.80;21.67;;;;;;;;;;5071435;28;20441;-87
2021/12/18 05:56:10;;;;;;;39.27;19.43;;;;;;;;;;5071806;28;20398;-87
2021/12/18 05:58:36;;;;;;;43.10;23.20;;;;;;;;;;5089718;28;20834;-87
2021/12/18 06:01:02;;;;;;;41.67;22.27;;;;;;;;;;5092084;28;20403;-87
2021/12/18 06:03:28;;;;;;;41.90;21.00;;;;;;;;;;5093843;28;20868;-87
2021/12/18 06:05:54;;;;;;;37.77;20.30;;;;;;;;;;5075391;28;20471;-87
2021/12/18 06:08:20;;;;;;;43.27;20.47;;;;;;;;;;5094111;28;20808;-86
2021/12/18 06:10:46;;;;;;;38.00;20.47;;;;;;;;;;5075323;28;20404;-87
2021/12/18 06:13:12;;;;;;;40.07;20.77;;;;;;;;;;5093709;28;20605;-87
2021/12/18 06:15:38;;;;;;;19.43;13.00;;;;;;;;;;5075150;28;20424;-87
2021/12/18 06:18:04;;;;;;;31.80;17.60;;;;;;;;;;5094035;28;20404;-84
2021/12/18 06:20:30;;;;;;;36.67;18.60;;;;;;;;;;5074937;28;20551;-86
2021/12/18 06:22:56;;;;;;;36.93;19.60;;;3.10;95.40;;;;;;5075278;28;20862;-86
2021/12/18 06:25:22;;;;;;;41.87;19.50;;;;;;;;;;5093448;28;20434;-85
2021/12/18 06:27:48;;;;;;;35.40;19.90;;;;;;;;;;5074917;28;20474;-85
2021/12/18 06:30:17;;;;;;;34.20;19.10;;;;;;;;;;5093244;28;20395;-85
2021/12/18 06:32:43;;;;;;;47.47;21.60;;;;;;;;;;5093055;28;20476;-85
2021/12/18 06:35:10;;;;;;;38.40;20.60;;;;;;;;;;5093421;28;20486;-85
2021/12/18 06:37:36;;;;;;;38.93;20.07;;;;;;;;;;5093099;28;20423;-85
2021/12/18 06:40:04;;;;;;;41.33;19.47;;;3.00;96.50;;;;;;5093114;28;20454;-86
2021/12/18 06:42:29;;;;;;;39.43;20.00;;;;;;;;;;5093195;28;20395;-86
2021/12/18 06:45:01;;;;;;;44.53;20.80;;;;;;;;;;5093552;28;20774;-89
2021/12/18 06:47:41;;;;;;;;;;;;;;;;;;;;;
2021/12/18 06:50:07;;;;;;;35.27;18.73;;;;;;;;;;5093179;28;20756;-89
2021/12/18 06:52:36;;;;;;;37.20;18.37;;;;;;;;;;5074828;28;20391;-89
2021/12/18 06:55:06;;;;;;;34.37;19.40;;;;;;;;;;5074968;28;20442;-89
2021/12/18 06:57:35;;;;;;;37.13;18.30;;;;;;;;;;5093780;28;20387;-90
2021/12/18 07:00:07;;;;;;;33.20;16.40;;;;;;;;;;5093518;28;20521;-86
2021/12/18 07:02:36;;;;;;;34.10;18.37;;;;;;;;;;5069368;28;20402;-87
2021/12/18 07:05:03;;;;;;;42.43;19.10;;;;;;;;;;5063361;28;21076;-86
2021/12/18 07:07:56;;;;;;;37.40;17.20;;;;;;;;;;5087927;28;20513;-86
2021/12/18 07:10:25;;;;;;;38.50;19.83;;;;;;;;;;5084321;28;20387;-86
2021/12/18 07:12:59;;;;;;;33.80;17.70;;;;;;;;;;5064275;28;20866;-85
2021/12/18 07:15:36;;;;;;;38.37;18.57;;;;;;;;;;5061566;28;20442;-86
2021/12/18 07:18:13;;;;;;;32.87;18.40;;;;;;;;;;5075853;28;20387;-86
2021/12/18 07:20:42;;;;;;;34.17;18.73;;;;;;;;;;5071471;28;20491;-87
2021/12/18 07:23:15;;;;;;;29.37;16.17;;;;;;;;;;5067241;28;20398;-87
2021/12/18 07:25:41;;;;;;;45.47;18.73;;;;;;;;;;5082612;28;20523;-87
2021/12/18 07:28:10;;;;;;;37.33;20.40;;;;;;;;;;5066446;28;20462;-87
2021/12/18 07:35:30;;;;;;;39.27;16.77;;;;;;;;;;5068419;27;1355874;-86
2021/12/18 07:37:59;;;;;;;39.93;18.20;;;;;;;;;;5099064;28;20503;-86
2021/12/18 07:40:25;;;;;;;40.30;18.20;;;;;;;;;;5101047;28;20389;-86
2021/12/18 07:42:51;;;;;;;38.63;19.20;;;;;;;;;;5095782;28;21212;-86
2021/12/18 07:45:21;;;;;;;33.70;17.00;;;;;;;;;;5094538;28;20448;-86
2021/12/18 07:47:47;;;;;;;38.43;18.27;;;;;;;;;;5095915;28;20504;-86
2021/12/18 07:50:18;;;;;;;37.70;19.30;;;;;;;;;;5096122;28;20819;-86
2021/12/18 07:52:48;;;;;;;34.57;17.73;;;;;;;;;;5095503;28;20378;-86
2021/12/18 07:55:18;;;;;;;32.03;16.03;;;;;;;;;;5095608;28;20482;-86
2021/12/18 07:57:44;;;;;;;35.77;17.60;;;;;;;;;;5094293;28;20485;-86
2021/12/18 08:00:21;;;;;;;35.10;17.77;;;;;;;;;;5095518;28;21042;-86
2021/12/18 08:02:48;;;;;;;43.53;18.70;;;;;;;;;;5094294;28;20873;-86
2021/12/18 08:05:24;;;;;;;38.47;18.03;;;;;;;;;;5095623;28;20491;-86
2021/12/18 08:07:52;;;;;;;34.20;14.87;;;;;;;;;;5095526;28;20443;-86
2021/12/18 08:10:27;;;;;;;38.10;16.70;;;;;;;;;;5095090;28;20493;-86
2021/12/18 08:12:56;;;;;;;31.57;16.00;;;;;;;;;;5115311;28;20415;-86
2021/12/18 08:15:25;;;;;;;39.67;17.93;;;;;;;;;;5107552;28;21277;-85
2021/12/18 08:18:04;;;;;;;27.47;15.60;;;;;;;;;;5125513;28;20825;-86
2021/12/18 08:20:30;;;;;;;37.60;15.00;;;;;;;;;;5124962;28;20389;-86
2021/12/18 08:23:00;;;;;;;34.47;16.07;;;;;;;;;;5126831;28;20718;-86
2021/12/18 08:25:27;;;;;;;18.87;11.70;;;;;;;;;;5126717;27;20423;-86
2021/12/18 08:28:00;;;;;;;38.70;16.17;;;;;;;;;;5125409;28;20913;-86
2021/12/18 08:30:29;;;;;;;29.20;14.93;;;;;;;;;;5126861;27;20839;-86
2021/12/18 08:32:56;;;;;;;32.97;16.43;;;;;;;;;;5126634;28;20934;-86
2021/12/18 08:35:40;;;;;;;23.40;14.53;;;;;;;;;;5126172;27;20441;-85
2021/12/18 08:38:09;;;;;;;29.83;15.47;;;;;;;;;;5126531;28;20411;-86
2021/12/18 08:40:45;;;;;;;38.70;17.10;;;;;;;;;;5126312;28;20404;-86
2021/12/18 08:43:11;;;;;;;33.17;16.80;;;;;;;;;;5117124;27;20391;-86
2021/12/18 08:45:38;;;;;;;32.67;18.03;;;;;;;;;;5098985;28;20403;-86
2021/12/18 08:48:04;;;;;;;28.90;14.90;;;;;;;;;;5090670;28;20448;-86
2021/12/18 08:50:30;;;;;;;26.80;14.30;;;;;;;;;;5091031;28;20462;-86
2021/12/18 08:53:01;;;;;;;22.50;13.43;;;;;;;;;;5090792;28;20839;-86
2021/12/18 08:55:46;;;;;;;33.00;15.33;;;;;;;;;;5090679;28;20472;-86
2021/12/18 08:58:12;;;;;;;54.00;15.93;;;;;;;;;;5092279;28;20873;-86
2021/12/18 09:00:41;;;;;;;36.23;14.97;;;;;;;;;;5090743;28;20415;-86
2021/12/18 09:03:10;;;;;;;27.50;15.00;;;;;;;;;;5090464;28;20490;-86
2021/12/18 09:05:39;;;;;;;33.27;15.73;;;;;;;;;;5090604;28;20554;-86
2021/12/18 09:08:05;;;;;;;36.20;16.43;;;;;;;;;;5092582;28;20458;-86
2021/12/18 09:10:40;;;;;;;26.60;15.50;;;;;;;;;;5092127;28;20435;-86
2021/12/18 09:13:06;;;;;;;20.27;11.70;;;;;;;;;;5091927;28;20375;-86
2021/12/18 09:15:32;;;;;;;26.37;13.87;;;;;;;;;;5091831;28;20526;-85
2021/12/18 09:17:58;;;;;;;24.10;14.50;;;;;;;;;;5092127;28;20415;-85
2021/12/18 09:20:27;;;;;;;28.47;14.40;;;;;;;;;;5091687;28;20440;-85
2021/12/18 09:22:53;;;;;;;31.10;14.73;;;;;;;;;;5091719;28;20408;-85
2021/12/18 09:25:38;;;;;;;28.80;15.27;;;;;;;;;;5090948;28;20948;-86
2021/12/18 09:28:13;;;;;;;29.40;14.43;;;;;;;;;;5089326;28;20403;-86
2021/12/18 09:30:57;;;;;;;32.10;15.10;;;;;;;;;;5090683;28;20452;-86
2021/12/18 09:33:30;;;;;;;21.43;12.37;;;;;;;;;;5091549;28;20377;-86
2021/12/18 09:35:56;;;;;;;31.97;14.43;;;;;;;;;;5105698;27;20433;-86
2021/12/18 09:38:30;;;;;;;22.97;13.97;;;;;;;;;;5102620;28;20408;-86
2021/12/18 09:41:00;;;;;;;34.00;12.80;;;;;;;;;;5111944;28;20474;-86
2021/12/18 09:43:26;;;;;;;20.10;9.77;;;;;;;;;;5110324;28;20793;-86
2021/12/18 09:45:52;;;;;;;31.50;13.17;;;;;;;;;;5111694;28;20424;-86
2021/12/18 09:48:24;;;;;;;26.67;15.17;;;;;;;;;;5111648;28;20411;-86
2021/12/18 09:50:56;;;;;;;35.17;14.77;;;;;;;;;;5111748;28;20407;-85
2021/12/18 09:53:22;;;;;;;27.57;14.70;;;;;;;;;;5110517;28;20404;-86
2021/12/18 09:55:51;;;;;;;26.40;13.37;;;;;;;;;;5111917;28;20387;-86
2021/12/18 09:58:17;;;;;;;25.80;13.27;;;;;;;;;;5109423;28;20410;-86
2021/12/18 10:00:43;;;;;;;26.50;12.37;;;;;;;;;;5110995;28;20407;-86
2021/12/18 10:03:09;;;;;;;25.50;14.53;;;;;;;;;;5110996;28;20427;-86
2021/12/18 10:05:38;;;;;;;29.37;13.87;;;;;;;;;;5113826;28;20796;-86
2021/12/18 10:08:07;;;;;;;28.37;11.10;;;;;;;;;;5113899;28;20390;-86
2021/12/18 10:10:33;;;;;;;25.50;13.63;;;;;;;;;;5111150;28;20492;-86
2021/12/18 10:16:12;;;;;;;31.73;15.83;;;;;;;;;;5090500;28;20528;-86
2021/12/18 10:18:41;;;;;;;27.87;14.17;;;;;;;;;;5092835;28;20430;-86
2021/12/18 10:21:20;;;;;;;27.00;15.20;;;;;;;;;;5092697;28;20434;-86
2021/12/18 10:23:56;;;;;;;18.47;12.67;;;;;;;;;;5092025;28;20477;-86
2021/12/18 10:26:39;;;;;;;28.10;14.73;;;;;;;;;;5094409;28;20409;-86
2021/12/18 10:29:37;;;;;;;22.97;12.80;;;6.50;85.10;;;;;;5100002;28;20434;-86
2021/12/18 10:32:15;;;;;;;27.10;13.37;;;;;;;;;;5093108;28;20420;-86
2021/12/18 10:34:53;;;;;;;26.63;12.97;;;;;;;;;;5094150;28;20472;-86
2021/12/18 10:37:26;;;;;;;27.73;15.40;;;;;;;;;;5094460;28;20446;-86
2021/12/18 10:39:56;;;;;;;30.80;14.30;;;;;;;;;;5093215;28;20495;-86
2021/12/18 10:42:33;;;;;;;28.00;13.97;;;;;;;;;;5094705;28;20434;-86
2021/12/18 10:54:23;;;;;;;24.33;13.60;;;;;;;;;;5090616;28;20408;-86
2021/12/18 11:00:06;;;;;;;25.67;13.50;;;;;;;;;;5157166;22;20517;-85
2021/12/18 11:02:41;;;;;;;25.67;13.90;;;;;;;;;;5046760;28;20410;-85
2021/12/18 11:05:14;;;;;;;23.83;13.33;;;;;;;;;;5046626;28;20929;-86
2021/12/18 11:08:07;;;;;;;29.67;12.43;;;;;;;;;;5046650;28;20482;-85
2021/12/18 11:10:43;;;;;;;27.70;12.77;;;;;;;;;;5046624;28;20469;-85
2021/12/18 11:15:55;;;;;;;20.60;12.13;;;;;;;;;;5046274;28;20499;-85
2021/12/18 11:18:21;;;;;;;21.57;11.87;;;;;;;;;;5046266;28;20414;-87
2021/12/18 11:20:51;;;;;;;26.37;14.13;;;;;;;;;;5046312;28;20798;-87
2021/12/18 11:23:21;;;;;;;26.33;12.63;;;;;;;;;;5046203;28;20399;-86
2021/12/18 11:25:47;;;;;;;35.93;12.03;;;;;;;;;;5045963;28;20454;-86
2021/12/18 11:28:14;;;;;;;26.60;13.97;;;;;;;;;;5044601;28;20768;-86
2021/12/18 11:30:41;;;;;;;23.33;13.50;;;;;;;;;;5046497;28;20384;-86
2021/12/18 11:33:07;;;;;;;33.70;14.93;;;;;;;;;;5044876;28;20463;-85
2021/12/18 11:35:36;;;;;;;25.27;14.20;;;;;;;;;;5046196;28;20995;-85
2021/12/18 11:38:08;;;;;;;23.67;13.80;;;;;;;;;;5046153;28;20417;-85
2021/12/18 11:40:39;;;;;;;27.47;14.37;;;;;;;;;;5046455;28;20445;-84
2021/12/18 11:43:45;;;;;;;29.43;13.53;;;6.00;85.30;;;;;;5044631;28;20456;-85
2021/12/18 11:46:37;;;;;;;23.27;12.33;;;5.90;85.70;;;;;;5046199;28;20456;-86
2021/12/18 11:49:13;;;;;;;28.00;13.07;;;;;;;;;;5046260;28;20915;-86
2021/12/18 11:52:02;;;;;;;31.90;15.33;;;;;;;;;;5051026;28;20425;-86
2021/12/18 11:54:49;;;;;;;22.40;12.03;;;6.20;85.00;;;;;;5047395;28;20513;-85
2021/12/18 11:57:50;;;;;;;24.63;13.50;;;6.30;84.60;;;;;;5044977;28;20417;-85
2021/12/18 12:00:16;;;;;;;26.93;13.23;;;;;;;;;;5042685;28;20925;-87
2021/12/18 12:02:50;;;;;;;22.73;12.97;;;8.20;90.20;;;;;;5032503;28;20411;-86
2021/12/18 12:05:18;;;;;;;28.70;14.80;;;6.30;90.30;;;;;;5033142;28;20441;-83
2021/12/18 12:07:45;;;;;;;43.13;15.67;;;;;;;;;;5033232;28;20420;-86
2021/12/18 12:10:35;;;;;;;33.00;16.27;;;6.60;90.20;;;;;;5031613;28;20455;-86
2021/12/18 12:13:01;;;;;;;24.20;12.83;;;;;;;;;;5033335;28;20404;-86
2021/12/18 12:15:27;;;;;;;25.77;11.73;;;6.80;87.40;;;;;;5032357;28;20808;-86
2021/12/18 12:18:04;;;;;;;24.93;13.37;;;6.80;88.10;;;;;;5031046;28;20568;-86
2021/12/18 12:20:38;;;;;;;24.17;13.63;;;6.80;82.50;;;;;;5032100;28;20437;-85
2021/12/18 12:23:05;;;;;;;33.70;16.33;;;6.50;88.50;;;;;;5031111;28;20404;-85
2021/12/18 12:25:35;;;;;;;28.43;14.33;;;6.60;88.70;;;;;;5030837;28;20447;-86
2021/12/18 12:28:04;;;;;;;26.40;15.03;;;6.50;89.10;;;;;;5032310;28;20407;-85
2021/12/18 12:30:59;;;;;;;24.73;15.23;;;6.50;83.70;;;;;;5031497;28;21326;-86
2021/12/18 12:33:34;;;;;;;21.07;13.00;;;6.40;84.00;;;;;;5030444;28;20489;-85
2021/12/18 12:41:33;;;;;;;28.20;14.73;;;;;;;;;;5069519;27;2012057;-86
2021/12/18 12:44:16;;;;;;;44.13;18.40;;;;;;;;;;5126171;28;20181;-86
2021/12/18 12:46:43;;;;;;;29.03;14.70;;;;;;;;;;5127718;28;20403;-86
2021/12/18 12:49:11;;;;;;;30.37;14.50;;;;;;;;;;5126798;28;20506;-86
2021/12/18 12:52:09;;;;;;;21.03;13.27;;;6.30;85.10;;;;;;5127911;28;20889;-86
2021/12/18 12:54:39;;;;;;;23.60;11.83;;;;;;;;;;5126517;28;20795;-86
2021/12/18 12:57:23;;;;;;;22.20;13.17;;;;;;;;;;5128044;28;20813;-86
2021/12/18 12:59:53;;;;;;;25.27;13.83;;;;;;;;;;5126257;28;20446;-86
2021/12/18 13:02:20;;;;;;;23.03;12.63;;;;;;;;;;5126437;28;20936;-86
2021/12/18 13:04:58;;;;;;;29.53;13.10;;;;;;;;;;5126948;28;20509;-86
2021/12/18 13:07:27;;;;;;;32.07;14.97;;;;;;;;;;5128122;28;20470;-86
2021/12/18 13:09:58;;;;;;;26.07;13.90;;;;;;;;;;5127425;28;20435;-86
2021/12/18 13:12:24;;;;;;;28.90;15.73;;;;;;;;;;5093398;28;20464;-86
2021/12/18 13:14:58;;;;;;;30.10;13.67;;;;;;;;;;5086888;28;20395;-86
2021/12/18 13:17:28;;;;;;;25.27;13.97;;;;;;;;;;5085185;28;20451;-86
2021/12/18 13:20:01;;;;;;;24.80;14.77;;;;;;;;;;5086519;28;20927;-86
2021/12/18 13:22:36;;;;;;;27.93;13.10;;;;;;;;;;5106699;28;20407;-86
2021/12/18 13:25:18;;;;;;;23.07;13.40;;;;;;;;;;5106884;28;20893;-86
2021/12/18 13:28:02;;;;;;;20.97;12.67;;;;;;;;;;5107429;28;20392;-86
2021/12/18 13:30:28;;;;;;;26.47;13.47;;;;;;;;;;5107673;28;20731;-86
2021/12/18 13:32:59;;;;;;;19.70;12.43;;;;;;;;;;5096883;28;20416;-86
2021/12/18 13:35:47;;;;;;;23.50;12.90;;;;;;;;;;5106123;28;20966;-86
2021/12/18 13:38:15;;;;;;;23.13;12.67;;;;;;;;;;5106151;28;20412;-86
2021/12/18 13:40:48;;;;;;;18.10;11.73;;;;;;;;;;5104919;28;20792;-84
2021/12/18 13:43:19;;;;;;;22.17;12.33;;;;;;;;;;5105149;28;20511;-85
2021/12/18 13:46:05;;;;;;;22.67;14.10;;;;;;;;;;5106101;28;20428;-86
2021/12/18 13:48:32;;;;;;;27.70;12.50;;;;;;;;;;5104497;28;20408;-85
2021/12/18 13:51:13;;;;;;;18.30;12.00;;;;;;;;;;5102490;28;20581;-84
2021/12/18 13:54:09;;;;;;;27.40;11.77;;;;;;;;;;5091676;28;20431;-86
2021/12/18 13:56:43;;;;;;;19.27;12.80;;;;;;;;;;5079508;28;20530;-85
2021/12/18 13:59:19;;;;;;;20.00;10.83;;;;;;;;;;5091104;28;20469;-86
2021/12/18 14:01:48;;;;;;;18.70;12.53;;;;;;;;;;5090726;28;20411;-85
2021/12/18 14:04:32;;;;;;;12.70;10.53;;;;;;;;;;5092973;28;20467;-85
2021/12/18 14:06:59;;;;;;;14.60;10.00;;;;;;;;;;5083546;28;20775;-86
2021/12/18 14:09:29;;;;;;;17.63;9.93;;;;;;;;;;5079304;28;20417;-85
2021/12/18 14:12:07;;;;;;;19.40;11.33;;;;;;;;;;5089698;28;20417;-85
2021/12/18 14:14:48;;;;;;;20.67;11.13;;;;;;;;;;5086204;28;20464;-85
2021/12/18 14:17:29;;;;;;;13.30;10.03;;;;;;;;;;5071619;28;20398;-85
2021/12/18 14:20:12;;;;;;;15.73;11.20;;;;;;;;;;5072096;28;20805;-85
2021/12/18 14:22:44;;;;;;;15.20;11.10;;;;;;;;;;5071872;28;20490;-85
2021/12/18 14:25:18;;;;;;;22.40;10.77;;;;;;;;;;5071726;28;20461;-85
2021/12/18 14:27:45;;;;;;;20.23;11.40;;;;;;;;;;5071970;28;20390;-85
2021/12/18 14:30:21;;;;;;;21.67;11.73;;;;;;;;;;5071772;28;20485;-85
2021/12/18 14:32:52;;;;;;;15.13;10.60;;;;;;;;;;5070138;28;20425;-85
2021/12/18 14:35:20;;;;;;;21.33;10.07;;;;;;;;;;5071474;28;20455;-85
2021/12/18 14:38:00;;;;;;;18.17;10.47;;;;;;;;;;5071376;28;20416;-85
2021/12/18 14:40:33;;;;;;;21.17;11.63;;;;;;;;;;5071167;28;20460;-85
2021/12/18 14:43:02;;;;;;;15.87;10.97;;;;;;;;;;5071172;28;20402;-85
2021/12/18 14:45:33;;;;;;;17.30;11.30;;;;;;;;;;5071537;28;20920;-84
2021/12/18 14:48:00;;;;;;;18.97;11.63;;;;;;;;;;5071336;28;20528;-85
2021/12/18 14:50:33;;;;;;;12.97;9.10;;;;;;;;;;5071257;28;20388;-85
2021/12/18 14:53:13;;;;;;;25.53;11.03;;;;;;;;;;5071249;28;20840;-85
2021/12/18 14:55:41;;;;;;;20.30;12.37;;;;;;;;;;5070847;28;20464;-85
2021/12/18 14:58:13;;;;;;;17.40;10.87;;;;;;;;;;5071018;28;20409;-85
2021/12/18 15:07:13;;;;;;;17.50;11.60;;;;;;;;;;4681787;26;20442;-84
2021/12/18 15:09:56;;;;;;;19.90;12.80;;;;;;;;;;5010869;28;20404;-84
2021/12/18 15:12:28;;;;;;;22.77;11.63;;;;;;;;;;4992990;28;20467;-85
2021/12/18 15:15:00;;;;;;;19.23;11.90;;;;;;;;;;4992977;28;20966;-84
2021/12/18 15:17:39;;;;;;;24.43;12.73;;;;;;;;;;5011147;28;20417;-83
2021/12/18 15:20:05;;;;;;;19.47;11.43;;;;;;;;;;5011128;28;20426;-84
2021/12/18 15:22:58;;;;;;;24.13;12.00;;;;;;;;;;5010699;28;20829;-84
2021/12/18 15:28:47;;;;;;;18.87;13.03;;;;;;;;;;4932392;29;20511;-85
2021/12/18 15:31:46;;;;;;;29.17;14.30;;;;;;;;;;4915013;29;20398;-84
2021/12/18 15:34:12;;;;;;;56.30;19.00;;;;;;;;;;5137616;23;20466;-84
2021/12/18 15:36:50;;;;;;;25.37;12.17;;;;;;;;;;5048125;28;20474;-84
2021/12/18 15:39:44;;;;;;;17.33;11.70;;;;;;;;;;5050567;28;20657;-84
2021/12/18 15:42:25;;;;;;;20.50;11.50;;;;;;;;;;5048998;28;20411;-84
2021/12/18 15:45:13;;;;;;;22.80;14.43;;;;;;;;;;5049844;28;20971;-84